sim
Sign-in with your pilot id or email,
or register
Callsign
Passwort

Schedule Details

Flight Number: DLH763
Departure: Delhi Indira Gandhi International Airport (VIDP) at 20:20
Arrival: Munich Airport (EDDM) at 04:40
Route: Lufthansa Passenger Schedule. Enter filed route here before submitting Pirep.

Weather Information
Getting current METAR information for VIDP 271730Z 00000KT 2500 FU NSC 21/15 Q1013 NOSIG
Getting current METAR information for EDDM 271720Z 17004KT 9999 FEW030 07/05 Q1014 NOSIG

Schedule Frequency

Route Map